Terminal Aerodrome Forecast
Issued by NWS

Home | Current Version | Previous Version | Graphics & Text | Print | Product List | Glossary On
Versions: 1 2 3 4 5 6 7 8 9 10 11 12 13 14 15
000
FTUS43 KMPX 191120
TAFRWF
TAF
KRWF 191120Z 1912/2012 06003KT P6SM SKC
     FM191500 14010KT P6SM SCT050 SCT250
     FM192200 14012G20KT P6SM VCTS BKN050CB BKN250
      TEMPO 1923/2003 2SM TSRA BKN030CB
     FM200300 12011KT P6SM VCTS BKN050CB OVC100
     FM200700 07005KT P6SM BKN060=

USA.gov is the U.S. government's official web portal to all federal, state and local government web resources and services.